Time,TemperatureF,DewpointF,PressureIn,WindDirection,WindDirectionDegrees,WindSpeedMPH,WindSpeedGustMPH,Humidity,HourlyPrecipIn,Conditions,Clouds,dailyrainin,SoftwareType,DateUTC
2013-09-05 18:00:00,81.2,51.0,29.83,East,90,1.0,11.0,35,0.00,,---,0.00,VWS V14.00,2013-09-05 23:00:00,
2013-09-05 18:01:00,79.8,53.4,29.81,North,11,0.0,6.0,40,0.01,,---,0.00,VWS V14.00,2013-09-05 23:01:00,
2013-09-05 18:06:00,80.9,52.2,29.81,NE,47,3.0,10.0,37,0.01,,---,0.00,VWS V14.00,2013-09-05 23:06:00,
2013-09-05 18:09:00,81.6,50.5,29.81,ENE,65,0.0,10.0,34,0.01,,---,0.00,VWS V14.00,2013-09-05 23:09:00,
2013-09-05 18:11:00,81.6,51.3,29.81,ESE,106,0.0,10.0,35,0.01,,---,0.00,VWS V14.00,2013-09-05 23:11:00,
2013-09-05 18:12:00,81.4,51.2,29.81,ESE,106,0.0,10.0,35,0.01,,---,0.00,VWS V14.00,2013-09-05 23:12:00,
2013-09-05 18:15:00,81.2,51.0,29.82,East,96,0.0,10.0,35,0.01,,---,0.00,VWS V14.00,2013-09-05 23:15:00,
2013-09-05 18:16:00,81.1,50.9,29.82,East,96,0.0,10.0,35,0.01,,---,0.00,VWS V14.00,2013-09-05 23:16:00,
2013-09-05 18:17:00,81.1,51.7,29.82,East,96,0.0,10.0,36,0.01,,---,0.00,VWS V14.00,2013-09-05 23:17:00,
2013-09-05 18:20:00,80.9,49.9,29.82,ENE,75,0.0,10.0,34,0.01,,---,0.00,VWS V14.00,2013-09-05 23:20:00,
2013-09-05 18:21:00,80.9,50.7,29.82,ENE,75,0.0,10.0,35,0.01,,---,0.00,VWS V14.00,2013-09-05 23:21:00,
2013-09-05 18:22:00,80.7,50.5,29.82,ENE,73,0.0,10.0,35,0.01,,---,0.00,VWS V14.00,2013-09-05 23:22:00,
2013-09-05 18:29:00,81.8,52.3,29.81,East,100,5.0,10.0,36,0.01,,---,0.00,VWS V14.00,2013-09-05 23:29:00,
2013-09-05 18:30:00,81.8,52.3,29.81,East,83,4.0,10.0,36,0.01,,---,0.00,VWS V14.00,2013-09-05 23:30:00,
2013-09-05 18:36:00,81.1,51.7,29.81,NE,49,1.0,8.0,36,0.01,,---,0.00,VWS V14.00,2013-09-05 23:36:00,
2013-09-05 18:38:00,80.7,50.5,29.81,ENE,73,0.0,8.0,35,0.01,,---,0.00,VWS V14.00,2013-09-05 23:38:00,
2013-09-05 18:40:00,80.5,51.1,29.81,NE,42,0.0,8.0,36,0.01,,---,0.00,VWS V14.00,2013-09-05 23:40:00,
2013-09-05 18:41:00,80.3,50.9,29.81,East,90,0.0,8.0,36,0.01,,---,0.00,VWS V14.00,2013-09-05 23:41:00,
2013-09-05 18:42:00,80.3,50.9,29.81,NE,38,0.0,8.0,36,0.01,,---,0.00,VWS V14.00,2013-09-05 23:42:00,
2013-09-05 18:44:00,80.1,50.8,29.82,East,89,3.0,8.0,36,0.01,,---,0.00,VWS V14.00,2013-09-05 23:44:00,
2013-09-05 18:48:00,80.1,50.0,29.82,East,79,0.0,8.0,35,0.01,,---,0.00,VWS V14.00,2013-09-05 23:48:00,
2013-09-05 18:49:00,79.9,49.8,29.82,East,85,0.0,8.0,35,0.01,,---,0.00,VWS V14.00,2013-09-05 23:49:00,
2013-09-05 18:52:00,79.9,50.6,29.82,East,89,5.0,10.0,36,0.01,,---,0.00,VWS V14.00,2013-09-05 23:52:00,
2013-09-05 18:53:00,79.9,49.8,29.82,East,85,0.0,10.0,35,0.01,,---,0.00,VWS V14.00,2013-09-05 23:53:00,
2013-09-05 18:54:00,79.9,50.6,29.82,East,80,0.0,10.0,36,0.01,,---,0.00,VWS V14.00,2013-09-05 23:54:00,
2013-09-05 18:55:00,79.9,50.6,29.82,East,88,0.0,10.0,36,0.01,,---,0.00,VWS V14.00,2013-09-05 23:55:00,
2013-09-05 18:57:00,79.8,51.2,29.82,East,88,0.0,10.0,37,0.01,,---,0.00,VWS V14.00,2013-09-05 23:57:00,
2013-09-05 18:58:00,79.8,50.5,29.82,East,86,0.0,10.0,36,0.01,,---,0.00,VWS V14.00,2013-09-05 23:58:00,
2013-09-05 18:59:00,79.8,50.5,29.82,East,89,0.0,10.0,36,0.01,,---,0.00,VWS V14.00,2013-09-05 23:59:00,
2013-09-05 19:00:00,79.8,50.5,29.82,East,100,0.0,0.0,36,0.00,,---,0.00,VWS V14.00,2013-09-06 00:00:00,
2013-09-05 19:01:00,79.8,50.5,29.82,East,86,0.0,0.0,36,0.00,,---,0.00,VWS V14.00,2013-09-06 00:01:00,
2013-09-05 19:02:00,79.6,50.3,29.82,East,85,0.0,0.0,36,0.00,,---,0.00,VWS V14.00,2013-09-06 00:02:00,
2013-09-05 19:03:00,79.6,50.3,29.82,East,88,0.0,0.0,36,0.00,,---,0.00,VWS V14.00,2013-09-06 00:03:00,
2013-09-05 19:04:00,79.4,50.2,29.82,East,99,0.0,0.0,36,0.00,,---,0.00,VWS V14.00,2013-09-06 00:04:00,
2013-09-05 19:05:00,79.4,50.2,29.82,ESE,112,0.0,0.0,36,0.00,,---,0.00,VWS V14.00,2013-09-06 00:05:00,
2013-09-05 19:07:00,79.4,50.9,29.82,ENE,72,0.0,0.0,37,0.00,,---,0.00,VWS V14.00,2013-09-06 00:07:00,
2013-09-05 19:09:00,79.2,50.7,29.82,ENE,76,0.0,0.0,37,0.00,,---,0.00,VWS V14.00,2013-09-06 00:09:00,
2013-09-05 19:10:00,79.2,50.7,29.82,ENE,76,0.0,0.0,37,0.00,,---,0.00,VWS V14.00,2013-09-06 00:10:00,
2013-09-05 19:14:00,79.0,50.5,29.83,East,80,0.0,0.0,37,0.00,,---,0.00,VWS V14.00,2013-09-06 00:14:00,
2013-09-05 19:16:00,79.0,50.5,29.83,NNE,23,0.0,0.0,37,0.00,,---,0.00,VWS V14.00,2013-09-06 00:16:00,
2013-09-05 19:17:00,79.0,50.5,29.83,NNE,27,0.0,0.0,37,0.00,,---,0.00,VWS V14.00,2013-09-06 00:17:00,
2013-09-05 19:19:00,78.8,51.1,29.83,East,90,0.0,0.0,38,0.00,,---,0.00,VWS V14.00,2013-09-06 00:19:00,
2013-09-05 19:20:00,78.8,50.4,29.83,East,89,0.0,0.0,37,0.00,,---,0.00,VWS V14.00,2013-09-06 00:20:00,
2013-09-05 19:21:00,79.0,50.5,29.83,East,93,0.0,0.0,37,0.00,,---,0.00,VWS V14.00,2013-09-06 00:21:00,
2013-09-05 19:22:00,78.8,51.1,29.83,East,93,0.0,0.0,38,0.00,,---,0.00,VWS V14.00,2013-09-06 00:22:00,
2013-09-05 19:23:00,78.8,51.1,29.83,East,93,0.0,0.0,38,0.00,,---,0.00,VWS V14.00,2013-09-06 00:23:00,
2013-09-05 19:24:00,78.8,51.1,29.83,East,93,0.0,0.0,38,0.00,,---,0.00,VWS V14.00,2013-09-06 00:24:00,
2013-09-05 19:26:00,78.6,51.6,29.83,NE,38,0.0,0.0,39,0.00,,---,0.00,VWS V14.00,2013-09-06 00:26:00,
2013-09-05 19:27:00,78.6,52.3,29.83,East,96,0.0,0.0,40,0.00,,---,0.00,VWS V14.00,2013-09-06 00:27:00,
2013-09-05 19:28:00,78.6,52.3,29.83,East,96,0.0,0.0,40,0.00,,---,0.00,VWS V14.00,2013-09-06 00:28:00,
2013-09-05 19:29:00,78.5,51.5,29.83,East,88,0.0,0.0,39,0.00,,---,0.00,VWS V14.00,2013-09-06 00:29:00,
2013-09-05 19:31:00,78.6,51.6,29.83,ENE,66,0.0,0.0,39,0.00,,---,0.00,VWS V14.00,2013-09-06 00:31:00,
2013-09-05 19:32:00,78.6,50.9,29.83,ESE,104,0.0,0.0,38,0.00,,---,0.00,VWS V14.00,2013-09-06 00:32:00,
2013-09-05 19:33:00,78.6,51.6,29.83,ESE,104,0.0,0.0,39,0.00,,---,0.00,VWS V14.00,2013-09-06 00:33:00,
2013-09-05 19:34:00,78.5,51.5,29.83,East,85,0.0,0.0,39,0.00,,---,0.00,VWS V14.00,2013-09-06 00:34:00,
2013-09-05 19:36:00,78.5,51.5,29.83,East,79,0.0,0.0,39,0.00,,---,0.00,VWS V14.00,2013-09-06 00:36:00,
2013-09-05 19:38:00,78.3,52.0,29.83,ESE,109,0.0,0.0,40,0.00,,---,0.00,VWS V14.00,2013-09-06 00:38:00,
2013-09-05 19:39:00,78.3,51.3,29.83,East,89,0.0,0.0,39,0.00,,---,0.00,VWS V14.00,2013-09-06 00:39:00,
2013-09-05 19:41:00,78.3,50.6,29.83,ENE,78,0.0,8.0,38,0.00,,---,0.00,VWS V14.00,2013-09-06 00:41:00,
2013-09-05 19:43:00,78.1,51.8,29.83,ENE,78,0.0,8.0,40,0.00,,---,0.00,VWS V14.00,2013-09-06 00:43:00,
2013-09-05 19:44:00,78.1,52.5,29.83,NE,44,0.0,8.0,41,0.00,,---,0.00,VWS V14.00,2013-09-06 00:44:00,
2013-09-05 19:45:00,77.9,51.7,29.83,East,95,0.0,8.0,40,0.00,,---,0.00,VWS V14.00,2013-09-06 00:45:00,
2013-09-05 19:46:00,77.9,51.7,29.83,East,79,0.0,8.0,40,0.00,,---,0.00,VWS V14.00,2013-09-06 00:46:00,
2013-09-05 19:48:00,77.9,51.7,29.83,East,86,0.0,8.0,40,0.00,,---,0.00,VWS V14.00,2013-09-06 00:48:00,
2013-09-05 19:49:00,77.9,51.7,29.83,East,88,2.0,8.0,40,0.00,,---,0.00,VWS V14.00,2013-09-06 00:49:00,
2013-09-05 19:50:00,77.9,53.0,29.83,East,99,0.0,10.0,42,0.00,,---,0.00,VWS V14.00,2013-09-06 00:50:00,
2013-09-05 19:51:00,77.9,53.0,29.83,East,82,2.0,10.0,42,0.00,,---,0.00,VWS V14.00,2013-09-06 00:51:00,
2013-09-05 19:53:00,77.9,52.3,29.83,East,93,6.0,10.0,41,0.00,,---,0.00,VWS V14.00,2013-09-06 00:53:00,
2013-09-05 19:55:00,77.7,52.2,29.83,East,93,0.0,10.0,41,0.00,,---,0.00,VWS V14.00,2013-09-06 00:55:00,
2013-09-05 19:56:00,77.7,52.2,29.83,ESE,106,5.0,10.0,41,0.00,,---,0.00,VWS V14.00,2013-09-06 00:56:00,
2013-09-05 19:58:00,77.4,51.9,29.83,East,96,0.0,10.0,41,0.00,,---,0.00,VWS V14.00,2013-09-06 00:58:00,
2013-09-05 19:59:00,77.4,52.5,29.84,East,86,0.0,10.0,42,0.00,,---,0.00,VWS V14.00,2013-09-06 00:59:00,
2013-09-05 20:00:00,77.2,52.4,29.84,East,88,0.0,0.0,42,0.00,,---,0.00,VWS V14.00,2013-09-06 01:00:00,
2013-09-05 20:01:00,77.2,52.4,29.84,ESE,103,0.0,0.0,42,0.00,,---,0.00,VWS V14.00,2013-09-06 01:01:00,
2013-09-05 20:02:00,77.2,52.4,29.84,ENE,78,2.0,6.0,42,0.00,,---,0.00,VWS V14.00,2013-09-06 01:02:00,
2013-09-05 20:03:00,77.2,51.7,29.84,East,79,2.0,7.0,41,0.00,,---,0.00,VWS V14.00,2013-09-06 01:03:00,
2013-09-05 20:05:00,77.2,51.7,29.84,East,95,6.0,7.0,41,0.00,,---,0.00,VWS V14.00,2013-09-06 01:05:00,
2013-09-05 20:06:00,77.2,51.7,29.84,ENE,72,0.0,7.0,41,0.00,,---,0.00,VWS V14.00,2013-09-06 01:06:00,
2013-09-05 20:07:00,77.2,52.4,29.84,East,85,4.0,7.0,42,0.00,,---,0.00,VWS V14.00,2013-09-06 01:07:00,
2013-09-05 20:09:00,77.0,50.9,29.84,ENE,65,0.0,8.0,40,0.00,,---,0.00,VWS V14.00,2013-09-06 01:09:00,
2013-09-05 20:10:00,77.0,51.5,29.84,East,83,0.0,8.0,41,0.00,,---,0.00,VWS V14.00,2013-09-06 01:10:00,
2013-09-05 20:13:00,76.8,52.6,29.84,East,90,0.0,8.0,43,0.00,,---,0.00,VWS V14.00,2013-09-06 01:13:00,
2013-09-05 20:16:00,76.8,52.6,29.84,East,96,0.0,8.0,43,0.00,,---,0.00,VWS V14.00,2013-09-06 01:16:00,
2013-09-05 20:17:00,76.7,53.2,29.84,East,96,4.0,8.0,44,0.00,,---,0.00,VWS V14.00,2013-09-06 01:17:00,
2013-09-05 20:19:00,76.7,53.2,29.84,ENE,69,4.0,10.0,44,0.00,,---,0.00,VWS V14.00,2013-09-06 01:19:00,
2013-09-05 20:21:00,76.5,53.0,29.84,East,90,0.0,10.0,44,0.00,,---,0.00,VWS V14.00,2013-09-06 01:21:00,
2013-09-05 20:22:00,76.5,53.0,29.84,East,83,0.0,10.0,44,0.00,,---,0.00,VWS V14.00,2013-09-06 01:22:00,
2013-09-05 20:23:00,76.3,52.8,29.84,East,90,0.0,10.0,44,0.00,,---,0.00,VWS V14.00,2013-09-06 01:23:00,
2013-09-05 20:25:00,76.3,52.8,29.84,ENE,75,2.0,10.0,44,0.00,,---,0.00,VWS V14.00,2013-09-06 01:25:00,
2013-09-05 20:27:00,76.1,52.6,29.84,East,86,0.0,10.0,44,0.00,,---,0.00,VWS V14.00,2013-09-06 01:27:00,
2013-09-05 20:29:00,76.0,53.8,29.84,East,88,0.0,10.0,46,0.00,,---,0.00,VWS V14.00,2013-09-06 01:29:00,
2013-09-05 20:30:00,76.0,53.8,29.84,East,88,0.0,0.0,46,0.00,,---,0.00,VWS V14.00,2013-09-06 01:30:00,
2013-09-05 20:31:00,75.8,53.0,29.84,East,88,0.0,0.0,45,0.00,,---,0.00,VWS V14.00,2013-09-06 01:31:00,
2013-09-05 20:32:00,75.8,53.0,29.84,East,88,0.0,0.0,45,0.00,,---,0.00,VWS V14.00,2013-09-06 01:32:00,
2013-09-05 20:36:00,75.6,53.4,29.84,East,86,0.0,6.0,46,0.00,,---,0.00,VWS V14.00,2013-09-06 01:36:00,
2013-09-05 20:37:00,75.6,53.4,29.84,East,89,0.0,6.0,46,0.00,,---,0.00,VWS V14.00,2013-09-06 01:37:00,
2013-09-05 20:38:00,75.4,53.2,29.84,East,89,0.0,6.0,46,0.00,,---,0.00,VWS V14.00,2013-09-06 01:38:00,
2013-09-05 20:41:00,75.1,53.5,29.84,East,89,0.0,6.0,47,0.00,,---,0.00,VWS V14.00,2013-09-06 01:41:00,
2013-09-05 20:42:00,75.1,53.5,29.84,East,89,0.0,6.0,47,0.00,,---,0.00,VWS V14.00,2013-09-06 01:42:00,
2013-09-05 20:43:00,75.3,53.7,29.84,East,93,0.0,6.0,47,0.00,,---,0.00,VWS V14.00,2013-09-06 01:43:00,
2013-09-05 20:45:00,75.3,53.7,29.86,East,86,0.0,6.0,47,0.00,,---,0.00,VWS V14.00,2013-09-06 01:45:00,
2013-09-05 20:46:00,75.1,53.5,29.86,East,88,0.0,6.0,47,0.00,,---,0.00,VWS V14.00,2013-09-06 01:46:00,
2013-09-05 20:47:00,75.1,53.5,29.86,East,86,0.0,6.0,47,0.00,,---,0.00,VWS V14.00,2013-09-06 01:47:00,
2013-09-05 20:48:00,75.1,53.5,29.86,East,97,0.0,6.0,47,0.00,,---,0.00,VWS V14.00,2013-09-06 01:48:00,
2013-09-05 20:52:00,74.9,53.3,29.86,East,92,2.0,6.0,47,0.00,,---,0.00,VWS V14.00,2013-09-06 01:52:00,
2013-09-05 20:54:00,75.1,53.5,29.86,East,80,2.0,8.0,47,0.00,,---,0.00,VWS V14.00,2013-09-06 01:54:00,
2013-09-05 20:57:00,75.3,53.7,29.86,ENE,78,0.0,8.0,47,0.00,,---,0.00,VWS V14.00,2013-09-06 01:57:00,
2013-09-05 20:58:00,75.3,53.7,29.86,East,97,0.0,8.0,47,0.00,,---,0.00,VWS V14.00,2013-09-06 01:58:00,
2013-09-05 20:59:00,75.3,53.7,29.87,ENE,73,0.0,8.0,47,0.00,,---,0.00,VWS V14.00,2013-09-06 01:59:00,
2013-09-05 21:00:00,75.3,53.7,29.87,East,90,0.0,0.0,47,0.00,,---,0.00,VWS V14.00,2013-09-06 02:00:00,
2013-09-05 21:02:00,75.3,53.7,29.87,ENE,78,0.0,7.0,47,0.00,,---,0.00,VWS V14.00,2013-09-06 02:02:00,
2013-09-05 21:05:00,75.4,54.4,29.87,East,96,2.0,11.0,48,0.00,,---,0.00,VWS V14.00,2013-09-06 02:05:00,
2013-09-05 21:06:00,75.4,54.4,29.87,ENE,78,7.0,11.0,48,0.00,,---,0.00,VWS V14.00,2013-09-06 02:06:00,
2013-09-05 21:07:00,75.4,54.4,29.87,East,83,0.0,11.0,48,0.00,,---,0.00,VWS V14.00,2013-09-06 02:07:00,
2013-09-05 21:10:00,75.3,54.3,29.87,ENE,73,3.0,11.0,48,0.00,,---,0.00,VWS V14.00,2013-09-06 02:10:00,
2013-09-05 21:11:00,75.3,54.3,29.87,East,89,9.0,11.0,48,0.00,,---,0.00,VWS V14.00,2013-09-06 02:11:00,
2013-09-05 21:12:00,75.3,54.3,29.87,ESE,121,11.0,11.0,48,0.00,,---,0.00,VWS V14.00,2013-09-06 02:12:00,
2013-09-05 21:16:00,75.3,53.7,29.83,ESE,109,5.0,11.0,47,0.00,,---,0.00,VWS V14.00,2013-09-06 02:16:00,
2013-09-05 21:18:00,75.3,53.1,29.83,ESE,113,11.0,12.0,46,0.00,,---,0.00,VWS V14.00,2013-09-06 02:18:00,
2013-09-05 21:19:00,75.3,54.3,29.83,East,85,7.0,12.0,48,0.00,,---,0.00,VWS V14.00,2013-09-06 02:19:00,
2013-09-05 21:21:00,75.1,54.1,29.83,ESE,106,3.0,12.0,48,0.00,,---,0.00,VWS V14.00,2013-09-06 02:21:00,
2013-09-05 21:23:00,75.1,54.1,29.83,East,95,0.0,12.0,48,0.00,,---,0.00,VWS V14.00,2013-09-06 02:23:00,
2013-09-05 21:24:00,75.1,54.1,29.83,ESE,103,7.0,12.0,48,0.00,,---,0.00,VWS V14.00,2013-09-06 02:24:00,
2013-09-05 21:26:00,74.9,53.3,29.83,East,90,3.0,12.0,47,0.00,,---,0.00,VWS V14.00,2013-09-06 02:26:00,
2013-09-05 21:27:00,74.9,53.3,29.83,East,99,2.0,12.0,47,0.00,,---,0.00,VWS V14.00,2013-09-06 02:27:00,
2013-09-05 21:28:00,74.7,54.3,29.83,ENE,73,0.0,12.0,49,0.00,,---,0.00,VWS V14.00,2013-09-06 02:28:00,
2013-09-05 21:29:00,74.7,54.3,29.83,ENE,58,0.0,12.0,49,0.00,,---,0.00,VWS V14.00,2013-09-06 02:29:00,
2013-09-05 21:31:00,74.6,54.2,29.83,ENE,75,5.0,13.0,49,0.00,,---,0.00,VWS V14.00,2013-09-06 02:31:00,
2013-09-05 21:32:00,74.7,54.3,29.83,East,89,3.0,13.0,49,0.00,,---,0.00,VWS V14.00,2013-09-06 02:32:00,
2013-09-05 21:33:00,74.7,54.3,29.83,East,92,5.0,13.0,49,0.00,,---,0.00,VWS V14.00,2013-09-06 02:33:00,
2013-09-05 21:37:00,74.7,54.8,29.83,East,86,5.0,13.0,50,0.00,,---,0.00,VWS V14.00,2013-09-06 02:37:00,
2013-09-05 21:39:00,74.6,54.8,29.83,ENE,78,4.0,13.0,50,0.00,,---,0.00,VWS V14.00,2013-09-06 02:39:00,
2013-09-05 21:42:00,74.4,53.5,29.83,East,80,2.0,13.0,48,0.00,,---,0.00,VWS V14.00,2013-09-06 02:42:00,
2013-09-05 21:44:00,74.4,54.6,29.84,East,95,0.0,13.0,50,0.00,,---,0.00,VWS V14.00,2013-09-06 02:44:00,
2013-09-05 21:46:00,74.0,54.2,29.84,East,95,0.0,13.0,50,0.00,,---,0.00,VWS V14.00,2013-09-06 02:46:00,
2013-09-05 21:48:00,73.9,54.7,29.84,East,80,0.0,13.0,51,0.00,,---,0.00,VWS V14.00,2013-09-06 02:48:00,
2013-09-05 21:49:00,73.9,53.6,29.84,East,95,0.0,13.0,49,0.00,,---,0.00,VWS V14.00,2013-09-06 02:49:00,
2013-09-05 21:50:00,73.9,53.6,29.84,East,95,1.0,13.0,49,0.00,,---,0.00,VWS V14.00,2013-09-06 02:50:00,
2013-09-05 21:52:00,73.7,54.5,29.84,East,79,0.0,13.0,51,0.00,,---,0.00,VWS V14.00,2013-09-06 02:52:00,
2013-09-05 21:54:00,73.9,54.7,29.84,East,88,0.0,13.0,51,0.00,,---,0.00,VWS V14.00,2013-09-06 02:54:00,
2013-09-05 21:55:00,73.9,54.7,29.84,East,97,4.0,13.0,51,0.00,,---,0.00,VWS V14.00,2013-09-06 02:55:00,
2013-09-05 21:58:00,73.7,54.5,29.84,ENE,75,0.0,13.0,51,0.00,,---,0.00,VWS V14.00,2013-09-06 02:58:00,
2013-09-05 22:00:00,73.7,54.5,29.84,East,90,5.0,13.0,51,0.00,,---,0.00,VWS V14.00,2013-09-06 03:00:00,
2013-09-05 22:01:00,73.5,54.3,29.84,ESE,102,0.0,5.0,51,0.00,,---,0.00,VWS V14.00,2013-09-06 03:01:00,
2013-09-05 22:04:00,73.3,54.6,29.84,East,88,0.0,6.0,52,0.00,,---,0.00,VWS V14.00,2013-09-06 03:04:00,
2013-09-05 22:05:00,73.3,54.6,29.84,East,95,0.0,6.0,52,0.00,,---,0.00,VWS V14.00,2013-09-06 03:05:00,
2013-09-05 22:06:00,73.2,55.1,29.84,East,80,0.0,6.0,53,0.00,,---,0.00,VWS V14.00,2013-09-06 03:06:00,
2013-09-05 22:08:00,73.3,54.1,29.84,East,88,0.0,6.0,51,0.00,,---,0.00,VWS V14.00,2013-09-06 03:08:00,
2013-09-05 22:09:00,73.2,53.5,29.84,ESE,106,4.0,6.0,50,0.00,,---,0.00,VWS V14.00,2013-09-06 03:09:00,
2013-09-05 22:10:00,73.2,54.5,29.84,East,92,0.0,6.0,52,0.00,,---,0.00,VWS V14.00,2013-09-06 03:10:00,
2013-09-05 22:11:00,73.2,54.0,29.84,ESE,109,2.0,6.0,51,0.00,,---,0.00,VWS V14.00,2013-09-06 03:11:00,
2013-09-05 22:12:00,73.2,54.0,29.84,East,99,3.0,6.0,51,0.00,,---,0.00,VWS V14.00,2013-09-06 03:12:00,